Time,TemperatureF,DewpointF,PressureIn,WindDirection,WindDirectionDegrees,WindSpeedMPH,WindSpeedGustMPH,Humidity,HourlyPrecipIn,Conditions,Clouds,dailyrainin,SoftwareType,DateUTC
2013-07-16 07:15:00,73.6,68.4,29.97,NNE,14,0.0,0.0,84,0.00,,,0.00,Weather View 32 v70,2013-07-16 12:15:00,
2013-07-16 07:20:00,73.8,68.6,29.97,NNE,14,0.0,0.0,84,0.00,,,0.00,Weather View 32 v70,2013-07-16 12:20:00,
2013-07-16 07:30:00,73.9,68.8,29.97,NNE,14,0.0,0.0,84,0.00,,,0.00,Weather View 32 v70,2013-07-16 12:30:00,
2013-07-16 07:35:00,74.1,69.0,29.97,NNE,14,0.0,0.0,84,0.00,,,0.00,Weather View 32 v70,2013-07-16 12:35:00,
2013-07-16 07:45:00,74.5,69.3,30.00,NNE,14,0.0,0.0,84,0.00,,,0.00,Weather View 32 v70,2013-07-16 12:45:00,
2013-07-16 07:55:00,74.8,69.7,30.00,ENE,60,0.0,4.0,84,0.00,,,0.00,Weather View 32 v70,2013-07-16 12:55:00,
2013-07-16 08:00:00,75.2,69.7,30.00,ENE,60,0.0,4.0,83,0.00,,,0.00,Weather View 32 v70,2013-07-16 13:00:00,
2013-07-16 08:05:00,75.4,69.8,30.00,ENE,60,3.0,4.0,83,0.00,,,0.00,Weather View 32 v70,2013-07-16 13:05:00,
2013-07-16 08:10:00,75.4,69.8,30.00,ENE,60,0.0,4.0,83,0.00,,,0.00,Weather View 32 v70,2013-07-16 13:10:00,
2013-07-16 08:15:00,75.6,70.0,30.00,ENE,60,0.0,4.0,83,0.00,,,0.00,Weather View 32 v70,2013-07-16 13:15:00,
2013-07-16 08:25:00,75.7,69.8,30.00,ENE,76,0.0,4.0,82,0.00,,,0.00,Weather View 32 v70,2013-07-16 13:25:00,
2013-07-16 08:30:00,76.1,70.2,30.00,ENE,76,0.0,4.0,82,0.00,,,0.00,Weather View 32 v70,2013-07-16 13:30:00,
2013-07-16 08:35:00,76.5,70.2,30.00,East,83,0.0,4.0,81,0.00,,,0.00,Weather View 32 v70,2013-07-16 13:35:00,
2013-07-16 08:45:00,77.0,70.0,30.00,NE,49,0.0,4.0,79,0.00,,,0.00,Weather View 32 v70,2013-07-16 13:45:00,
2013-07-16 08:55:00,77.7,69.9,30.00,ENE,69,0.0,4.0,77,0.00,,,0.00,Weather View 32 v70,2013-07-16 13:55:00,
2013-07-16 09:00:00,78.1,69.9,30.00,East,84,4.0,4.0,76,0.00,,,0.00,Weather View 32 v70,2013-07-16 14:00:00,
2013-07-16 09:10:00,78.6,70.0,30.00,NE,39,0.0,4.0,75,0.00,,,0.00,Weather View 32 v70,2013-07-16 14:10:00,
2013-07-16 09:15:00,78.8,69.8,30.00,ENE,71,0.0,4.0,74,0.00,,,0.00,Weather View 32 v70,2013-07-16 14:15:00,
2013-07-16 09:25:00,79.0,68.7,30.00,North,10,0.0,4.0,71,0.00,,,0.00,Weather View 32 v70,2013-07-16 14:25:00,
2013-07-16 09:30:00,79.0,68.7,30.00,ENE,64,0.0,4.0,71,0.00,,,0.00,Weather View 32 v70,2013-07-16 14:30:00,
2013-07-16 09:35:00,79.0,68.7,30.00,ENE,69,0.0,5.0,71,0.00,,,0.00,Weather View 32 v70,2013-07-16 14:35:00,
2013-07-16 09:45:00,79.0,68.3,30.00,East,87,0.0,5.0,70,0.00,,,0.00,Weather View 32 v70,2013-07-16 14:45:00,
2013-07-16 09:50:00,79.3,68.7,30.00,ENE,70,3.0,6.0,70,0.00,,,0.00,Weather View 32 v70,2013-07-16 14:50:00,
2013-07-16 10:00:00,80.6,69.0,30.00,ENE,69,0.0,6.0,68,0.00,,,0.00,Weather View 32 v70,2013-07-16 15:00:00,
2013-07-16 10:05:00,81.0,68.9,30.00,ENE,70,2.0,6.0,67,0.00,,,0.00,Weather View 32 v70,2013-07-16 15:05:00,
2013-07-16 10:10:00,81.1,68.7,30.00,ENE,69,2.0,6.0,66,0.00,,,0.00,Weather View 32 v70,2013-07-16 15:10:00,
2013-07-16 10:20:00,80.6,68.1,30.00,ENE,74,0.0,6.0,66,0.00,,,0.00,Weather View 32 v70,2013-07-16 15:20:00,
2013-07-16 10:30:00,80.1,68.1,30.00,ENE,74,0.0,6.0,67,0.00,,,0.00,Weather View 32 v70,2013-07-16 15:30:00,
2013-07-16 10:40:00,79.7,68.2,30.00,ENE,74,0.0,6.0,68,0.00,,,0.00,Weather View 32 v70,2013-07-16 15:40:00,
2013-07-16 10:45:00,79.5,68.0,30.00,ENE,74,0.0,6.0,68,0.00,,,0.00,Weather View 32 v70,2013-07-16 15:45:00,
2013-07-16 10:50:00,79.3,68.2,30.00,East,83,2.0,6.0,69,0.00,,,0.00,Weather View 32 v70,2013-07-16 15:50:00,
2013-07-16 11:00:00,79.2,68.9,30.00,ENE,58,2.0,5.0,71,0.00,,,0.00,Weather View 32 v70,2013-07-16 16:00:00,
2013-07-16 11:10:00,79.5,70.5,30.00,ENE,58,0.0,4.0,74,0.00,,,0.00,Weather View 32 v70,2013-07-16 16:10:00,
2013-07-16 11:15:00,80.2,71.6,30.00,ENE,69,0.0,5.0,75,0.00,,,0.00,Weather View 32 v70,2013-07-16 16:15:00,
2013-07-16 11:20:00,80.4,70.9,30.00,NNW,329,0.0,5.0,73,0.00,,,0.00,Weather View 32 v70,2013-07-16 16:20:00,
2013-07-16 11:25:00,80.2,69.5,30.00,East,81,3.0,5.0,70,0.00,,,0.00,Weather View 32 v70,2013-07-16 16:25:00,
2013-07-16 11:35:00,80.8,69.6,30.00,East,87,0.0,5.0,69,0.00,,,0.00,Weather View 32 v70,2013-07-16 16:35:00,
2013-07-16 11:45:00,80.2,68.7,30.00,East,85,0.0,5.0,68,0.00,,,0.00,Weather View 32 v70,2013-07-16 16:45:00,
2013-07-16 11:55:00,79.2,68.5,30.00,East,85,0.0,5.0,70,0.00,,,0.00,Weather View 32 v70,2013-07-16 16:55:00,
2013-07-16 12:05:00,78.1,69.1,30.00,East,85,0.0,5.0,74,0.08,,,0.08,Weather View 32 v70,2013-07-16 17:05:00,
2013-07-16 12:10:00,78.1,69.5,30.00,East,88,0.0,5.0,75,0.08,,,0.08,Weather View 32 v70,2013-07-16 17:10:00,
2013-07-16 12:15:00,78.1,69.9,30.00,East,88,0.0,4.0,76,0.12,,,0.12,Weather View 32 v70,2013-07-16 17:15:00,
2013-07-16 12:25:00,78.1,71.0,30.00,East,88,0.0,4.0,79,0.12,,,0.12,Weather View 32 v70,2013-07-16 17:25:00,
2013-07-16 12:30:00,78.3,71.2,30.00,East,88,0.0,4.0,79,0.12,,,0.12,Weather View 32 v70,2013-07-16 17:30:00,
2013-07-16 12:40:00,79.3,72.6,30.00,East,88,0.0,2.0,80,0.12,,,0.12,Weather View 32 v70,2013-07-16 17:40:00,
2013-07-16 12:45:00,79.7,73.0,30.00,East,90,0.0,4.0,80,0.12,,,0.12,Weather View 32 v70,2013-07-16 17:45:00,
2013-07-16 12:55:00,79.7,72.6,30.00,East,97,0.0,4.0,79,0.12,,,0.12,Weather View 32 v70,2013-07-16 17:55:00,
2013-07-16 13:00:00,79.5,72.4,30.00,East,84,0.0,4.0,79,0.08,,,0.12,Weather View 32 v70,2013-07-16 18:00:00,
2013-07-16 13:05:00,79.5,72.4,30.00,East,85,0.0,4.0,79,0.04,,,0.12,Weather View 32 v70,2013-07-16 18:05:00,
2013-07-16 13:15:00,79.7,72.6,30.00,East,85,0.0,4.0,79,0.00,,,0.12,Weather View 32 v70,2013-07-16 18:15:00,
2013-07-16 13:20:00,79.5,72.4,30.00,East,87,0.0,4.0,79,0.00,,,0.12,Weather View 32 v70,2013-07-16 18:20:00,
2013-07-16 13:25:00,79.3,72.2,30.00,East,87,0.0,4.0,79,0.08,,,0.20,Weather View 32 v70,2013-07-16 18:25:00,
2013-07-16 13:35:00,77.7,70.7,30.00,NNE,32,0.0,5.0,79,0.20,,,0.31,Weather View 32 v70,2013-07-16 18:35:00,
2013-07-16 13:45:00,77.4,70.7,30.00,NNE,32,0.0,5.0,80,0.24,,,0.35,Weather View 32 v70,2013-07-16 18:45:00,
2013-07-16 13:50:00,77.7,71.4,30.00,ENE,66,0.0,5.0,81,0.24,,,0.35,Weather View 32 v70,2013-07-16 18:50:00,
2013-07-16 13:55:00,78.6,72.3,30.00,East,91,4.0,5.0,81,0.24,,,0.35,Weather View 32 v70,2013-07-16 18:55:00,
2013-07-16 14:00:00,79.3,72.6,30.00,East,82,3.0,5.0,80,0.24,,,0.35,Weather View 32 v70,2013-07-16 19:00:00,
2013-07-16 14:10:00,80.2,72.0,30.00,East,86,3.0,6.0,76,0.24,,,0.35,Weather View 32 v70,2013-07-16 19:10:00,
2013-07-16 14:16:00,80.6,70.7,30.00,East,89,0.0,8.0,72,0.24,,,0.35,Weather View 32 v70,2013-07-16 19:16:00,
2013-07-16 14:25:00,80.2,69.9,30.00,East,99,0.0,8.0,71,0.16,,,0.35,Weather View 32 v70,2013-07-16 19:25:00,
2013-07-16 14:30:00,80.1,69.8,30.00,East,98,0.0,8.0,71,0.04,,,0.35,Weather View 32 v70,2013-07-16 19:30:00,
2013-07-16 14:35:00,80.1,70.2,30.00,East,94,4.0,8.0,72,0.04,,,0.35,Weather View 32 v70,2013-07-16 19:35:00,
2013-07-16 14:40:00,80.1,70.6,30.00,East,91,0.0,8.0,73,0.00,,,0.35,Weather View 32 v70,2013-07-16 19:40:00,
2013-07-16 14:45:00,80.4,71.3,30.00,East,86,3.0,8.0,74,0.00,,,0.35,Weather View 32 v70,2013-07-16 19:45:00,
2013-07-16 14:55:00,81.9,71.9,30.00,East,87,5.0,8.0,72,0.00,,,0.35,Weather View 32 v70,2013-07-16 19:55:00,
2013-07-16 15:05:00,82.6,69.6,30.00,ENE,67,5.0,8.0,65,0.00,,,0.35,Weather View 32 v70,2013-07-16 20:05:00,
2013-07-16 15:15:00,81.7,69.6,30.00,ENE,77,4.0,6.0,67,0.00,,,0.35,Weather View 32 v70,2013-07-16 20:15:00,
2013-07-16 15:25:00,79.9,69.2,30.00,East,98,0.0,6.0,70,0.00,,,0.35,Weather View 32 v70,2013-07-16 20:25:00,
2013-07-16 15:30:00,79.3,69.9,30.00,East,98,0.0,6.0,73,0.00,,,0.35,Weather View 32 v70,2013-07-16 20:30:00,
2013-07-16 15:35:00,79.2,70.9,30.00,East,97,0.0,6.0,76,0.00,,,0.35,Weather View 32 v70,2013-07-16 20:35:00,
2013-07-16 15:40:00,79.2,71.3,30.00,East,95,3.0,6.0,77,0.00,,,0.35,Weather View 32 v70,2013-07-16 20:40:00,
2013-07-16 15:50:00,78.4,71.0,30.00,East,89,0.0,6.0,78,0.04,,,0.39,Weather View 32 v70,2013-07-16 20:50:00,
2013-07-16 15:55:00,78.3,70.8,29.97,East,88,0.0,6.0,78,0.04,,,0.39,Weather View 32 v70,2013-07-16 20:55:00,
2013-07-16 16:00:00,78.3,71.2,29.97,East,79,0.0,6.0,79,0.04,,,0.39,Weather View 32 v70,2013-07-16 21:00:00,
2013-07-16 16:05:00,78.3,71.2,29.97,East,79,0.0,6.0,79,0.04,,,0.39,Weather View 32 v70,2013-07-16 21:05:00,
2013-07-16 16:15:00,78.4,71.7,30.00,East,97,0.0,6.0,80,0.04,,,0.39,Weather View 32 v70,2013-07-16 21:15:00,
2013-07-16 16:20:00,78.6,71.9,30.00,East,92,0.0,6.0,80,0.04,,,0.39,Weather View 32 v70,2013-07-16 21:20:00,
2013-07-16 16:25:00,78.6,71.9,30.00,East,90,0.0,5.0,80,0.04,,,0.39,Weather View 32 v70,2013-07-16 21:25:00,
2013-07-16 16:35:00,78.6,71.5,30.00,ENE,64,0.0,5.0,79,0.04,,,0.39,Weather View 32 v70,2013-07-16 21:35:00,
2013-07-16 16:45:00,78.6,71.5,30.00,ENE,72,0.0,5.0,79,0.00,,,0.39,Weather View 32 v70,2013-07-16 21:45:00,
2013-07-16 16:55:00,78.8,71.7,30.00,East,101,0.0,4.0,79,0.00,,,0.39,Weather View 32 v70,2013-07-16 21:55:00,
2013-07-16 17:00:00,79.0,71.9,30.00,East,94,0.0,4.0,79,0.00,,,0.39,Weather View 32 v70,2013-07-16 22:00:00,
2013-07-16 17:10:00,79.0,71.9,29.97,East,93,3.0,4.0,79,0.00,,,0.39,Weather View 32 v70,2013-07-16 22:10:00,
2013-07-16 17:18:00,79.0,71.5,29.97,East,90,0.0,5.0,78,0.00,,,0.39,Weather View 32 v70,2013-07-16 22:18:00,
2013-07-16 17:25:00,79.0,71.1,29.97,East,83,2.0,5.0,77,0.00,,,0.39,Weather View 32 v70,2013-07-16 22:25:00,
2013-07-16 17:30:00,79.0,70.7,29.97,East,82,0.0,5.0,76,0.00,,,0.39,Weather View 32 v70,2013-07-16 22:30:00,
2013-07-16 17:40:00,79.2,70.9,29.97,East,82,0.0,5.0,76,0.00,,,0.39,Weather View 32 v70,2013-07-16 22:40:00,
2013-07-16 17:50:00,79.0,70.7,29.97,East,91,0.0,5.0,76,0.00,,,0.39,Weather View 32 v70,2013-07-16 22:50:00,
2013-07-16 18:00:00,79.0,70.7,29.97,East,91,0.0,5.0,76,0.00,,,0.39,Weather View 32 v70,2013-07-16 23:00:00,
2013-07-16 18:10:00,79.0,71.1,29.97,East,91,0.0,5.0,77,0.00,,,0.39,Weather View 32 v70,2013-07-16 23:10:00,
2013-07-16 18:15:00,78.8,70.9,29.97,East,91,0.0,5.0,77,0.00,,,0.39,Weather View 32 v70,2013-07-16 23:15:00,
2013-07-16 18:25:00,78.8,70.9,30.00,East,91,0.0,3.0,77,0.00,,,0.39,Weather View 32 v70,2013-07-16 23:25:00,
2013-07-16 18:35:00,78.8,70.9,30.00,East,85,0.0,3.0,77,0.00,,,0.39,Weather View 32 v70,2013-07-16 23:35:00,
2013-07-16 18:40:00,78.8,70.9,30.00,East,85,0.0,3.0,77,0.00,,,0.39,Weather View 32 v70,2013-07-16 23:40:00,
2013-07-16 18:45:00,78.8,70.9,30.00,East,85,0.0,2.0,77,0.00,,,0.39,Weather View 32 v70,2013-07-16 23:45:00,
2013-07-16 18:50:00,78.8,70.9,30.00,East,85,0.0,2.0,77,0.00,,,0.39,Weather View 32 v70,2013-07-16 23:50:00,
2013-07-16 18:55:00,79.0,71.1,30.00,East,85,0.0,2.0,77,0.00,,,0.39,Weather View 32 v70,2013-07-16 23:55:00,
2013-07-16 19:05:00,78.8,70.9,30.00,East,83,0.0,3.0,77,0.00,,,0.39,Weather View 32 v70,2013-07-17 00:05:00,
2013-07-16 19:10:00,78.8,70.9,30.00,East,92,0.0,3.0,77,0.00,,,0.39,Weather View 32 v70,2013-07-17 00:10:00,
2013-07-16 19:19:00,78.8,70.9,30.00,East,89,0.0,4.0,77,0.00,,,0.39,Weather View 32 v70,2013-07-17 00:19:00,
2013-07-16 19:25:00,78.6,70.8,30.00,ENE,72,0.0,4.0,77,0.00,,,0.39,Weather View 32 v70,2013-07-17 00:25:00,
2013-07-16 19:30:00,78.4,71.0,30.00,ENE,72,0.0,4.0,78,0.00,,,0.39,Weather View 32 v70,2013-07-17 00:30:00,
2013-07-16 19:35:00,78.4,71.0,30.00,ENE,72,0.0,4.0,78,0.00,,,0.39,Weather View 32 v70,2013-07-17 00:35:00,
2013-07-16 19:45:00,78.3,70.8,30.00,ENE,72,0.0,4.0,78,0.00,,,0.39,Weather View 32 v70,2013-07-17 00:45:00,
2013-07-16 19:50:00,78.1,70.6,30.00,ENE,72,0.0,4.0,78,0.00,,,0.39,Weather View 32 v70,2013-07-17 00:50:00,
2013-07-16 20:00:00,77.9,70.5,30.00,ENE,72,0.0,4.0,78,0.00,,,0.39,Weather View 32 v70,2013-07-17 01:00:00,
2013-07-16 20:10:00,77.7,70.3,30.00,ENE,72,0.0,4.0,78,0.00,,,0.39,Weather View 32 v70,2013-07-17 01:10:00,
2013-07-16 20:15:00,77.5,70.1,30.00,ENE,72,0.0,0.0,78,0.00,,,0.39,Weather View 32 v70,2013-07-17 01:15:00,
2013-07-16 20:20:00,77.5,70.1,30.00,ENE,72,0.0,0.0,78,0.00,,,0.39,Weather View 32 v70,2013-07-17 01:20:00,
2013-07-16 20:25:00,77.4,69.9,30.00,ENE,72,0.0,0.0,78,0.00,,,0.39,Weather View 32 v70,2013-07-17 01:25:00,
2013-07-16 20:30:00,77.4,69.9,30.00,ENE,72,0.0,0.0,78,0.00,,,0.39,Weather View 32 v70,2013-07-17 01:30:00,
2013-07-16 20:35:00,77.2,69.8,30.00,ENE,72,0.0,0.0,78,0.00,,,0.39,Weather View 32 v70,2013-07-17 01:35:00,
2013-07-16 20:45:00,77.2,69.8,30.03,ENE,72,0.0,0.0,78,0.00,,,0.39,Weather View 32 v70,2013-07-17 01:45:00,
2013-07-16 20:50:00,77.0,69.6,30.03,ENE,72,0.0,0.0,78,0.00,,,0.39,Weather View 32 v70,2013-07-17 01:50:00,
2013-07-16 21:00:00,77.0,69.6,30.03,ENE,72,0.0,0.0,78,0.00,,,0.39,Weather View 32 v70,2013-07-17 02:00:00,
2013-07-16 21:05:00,77.0,69.6,30.03,ENE,72,0.0,0.0,78,0.00,,,0.39,Weather View 32 v70,2013-07-17 02:05:00,
2013-07-16 21:10:00,77.0,69.6,30.03,ENE,72,0.0,0.0,78,0.00,,,0.39,Weather View 32 v70,2013-07-17 02:10:00,
2013-07-16 21:20:00,76.8,69.8,30.03,ENE,72,0.0,0.0,79,0.00,,,0.39,Weather View 32 v70,2013-07-17 02:20:00,
2013-07-16 21:30:00,76.6,69.6,30.03,ENE,72,0.0,0.0,79,0.00,,,0.39,Weather View 32 v70,2013-07-17 02:30:00,
2013-07-16 21:35:00,76.5,69.4,30.03,ENE,72,0.0,0.0,79,0.00,,,0.39,Weather View 32 v70,2013-07-17 02:35:00,
2013-07-16 21:45:00,76.3,69.6,30.03,ENE,72,0.0,0.0,80,0.00,,,0.39,Weather View 32 v70,2013-07-17 02:45:00,
2013-07-16 21:55:00,75.9,69.3,30.03,ENE,72,0.0,0.0,80,0.00,,,0.39,Weather View 32 v70,2013-07-17 02:55:00,
2013-07-16 22:00:00,75.9,69.3,30.03,ENE,72,0.0,0.0,80,0.00,,,0.39,Weather View 32 v70,2013-07-17 03:00:00,
2013-07-16 22:10:00,75.7,69.5,30.03,ENE,72,0.0,0.0,81,0.00,,,0.39,Weather View 32 v70,2013-07-17 03:10:00,
2013-07-16 22:20:00,75.4,69.1,30.03,ENE,72,0.0,0.0,81,0.00,,,0.39,Weather View 32 v70,2013-07-17 03:20:00,
2013-07-16 22:25:00,75.2,69.3,30.03,ENE,72,0.0,0.0,82,0.00,,,0.39,Weather View 32 v70,2013-07-17 03:25:00,
2013-07-16 22:35:00,75.2,69.3,30.03,ENE,72,0.0,0.0,82,0.00,,,0.39,Weather View 32 v70,2013-07-17 03:35:00,
2013-07-16 22:40:00,75.2,69.7,30.03,ENE,72,0.0,0.0,83,0.00,,,0.39,Weather View 32 v70,2013-07-17 03:40:00,
2013-07-16 22:50:00,75.0,69.5,30.03,ENE,72,0.0,0.0,83,0.00,,,0.39,Weather View 32 v70,2013-07-17 03:50:00,
2013-07-16 22:55:00,75.0,69.5,30.03,ENE,72,0.0,0.0,83,0.00,,,0.39,Weather View 32 v70,2013-07-17 03:55:00,
2013-07-16 23:05:00,75.0,69.5,30.03,ENE,72,0.0,0.0,83,0.00,,,0.39,Weather View 32 v70,2013-07-17 04:05:00,
2013-07-16 23:10:00,74.8,69.7,30.06,ENE,72,0.0,0.0,84,0.00,,,0.39,Weather View 32 v70,2013-07-17 04:10:00,
2013-07-16 23:15:00,74.8,69.7,30.06,ENE,72,0.0,0.0,84,0.00,,,0.39,Weather View 32 v70,2013-07-17 04:15:00,
2013-07-16 23:20:00,74.8,69.7,30.06,ENE,72,0.0,0.0,84,0.00,,,0.39,Weather View 32 v70,2013-07-17 04:20:00,
2013-07-16 23:21:00,74.8,69.7,30.06,ENE,72,0.0,0.0,84,0.00,,,0.39,Weather View 32 v70,2013-07-17 04:21:00,
2013-07-16 23:30:00,74.8,69.7,30.03,ENE,72,0.0,0.0,84,0.00,,,0.39,Weather View 32 v70,2013-07-17 04:30:00,
2013-07-16 23:35:00,74.8,69.7,30.03,ENE,72,0.0,0.0,84,0.00,,,0.39,Weather View 32 v70,2013-07-17 04:35:00,
2013-07-16 23:45:00,75.0,69.8,30.06,ENE,72,0.0,0.0,84,0.00,,,0.39,Weather View 32 v70,2013-07-17 04:45:00,
2013-07-16 23:50:00,74.8,69.7,30.06,ENE,72,0.0,0.0,84,0.00,,,0.39,Weather View 32 v70,2013-07-17 04:50:00,
2013-07-16 23:55:00,74.8,69.7,30.03,ENE,72,0.0,0.0,84,0.00,,,0.39,Weather View 32 v70,2013-07-17 04:55:00,